createdAt,value
2023-01-30T00:00:58.357Z,11.35
2023-01-30T00:03:25.715Z,10.65
2023-01-30T00:05:52.726Z,11.50
2023-01-30T00:08:20.370Z,11.50
2023-01-30T00:10:47.837Z,10.93
2023-01-30T00:13:15.509Z,12.65
2023-01-30T00:15:42.869Z,11.80
2023-01-30T00:18:10.236Z,11.38
2023-01-30T00:20:37.687Z,11.90
2023-01-30T00:23:05.236Z,12.25
2023-01-30T00:25:32.440Z,11.40
2023-01-30T00:28:01.323Z,11.18
2023-01-30T00:30:28.865Z,12.45
2023-01-30T00:32:58.068Z,12.68
2023-01-30T00:35:28.680Z,10.93
2023-01-30T00:37:59.628Z,11.45
2023-01-30T00:40:28.199Z,12.15
2023-01-30T00:43:14.498Z,11.43
2023-01-30T00:46:03.151Z,11.63
2023-01-30T00:48:30.706Z,12.32
2023-01-30T00:50:57.637Z,11.85
2023-01-30T00:53:24.988Z,11.77
2023-01-30T00:55:52.628Z,13.40
2023-01-30T00:58:19.721Z,11.88
2023-01-30T01:00:46.943Z,12.10
2023-01-30T01:03:14.216Z,12.55
2023-01-30T01:05:41.567Z,11.70
2023-01-30T01:08:08.738Z,12.93
2023-01-30T01:10:35.689Z,12.35
2023-01-30T01:13:02.869Z,12.23
2023-01-30T01:15:30.469Z,12.15
2023-01-30T01:17:57.337Z,12.75
2023-01-30T01:20:24.393Z,12.43
2023-01-30T01:22:56.301Z,11.80
2023-01-30T01:25:24.324Z,10.77
2023-01-30T01:27:51.704Z,12.45
2023-01-30T01:30:19.108Z,11.85
2023-01-30T01:32:46.012Z,10.60
2023-01-30T01:35:12.914Z,11.88
2023-01-30T01:37:39.994Z,12.70
2023-01-30T01:40:26.426Z,10.98
2023-01-30T01:42:53.300Z,11.32
2023-01-30T01:45:24.693Z,11.75
2023-01-30T01:48:10.103Z,11.63
2023-01-30T01:50:46.852Z,11.32
2023-01-30T01:53:17.430Z,12.57
2023-01-30T01:55:48.207Z,11.85
2023-01-30T01:58:19.763Z,11.98
2023-01-30T02:00:48.340Z,12.38
2023-01-30T02:03:19.845Z,11.90
2023-01-30T02:05:51.452Z,11.90
2023-01-30T02:08:26.066Z,11.85
2023-01-30T02:11:22.357Z,10.57
2023-01-30T02:13:50.916Z,10.85
2023-01-30T02:16:17.932Z,10.95
2023-01-30T02:18:46.381Z,10.93
2023-01-30T02:21:50.716Z,11.80
2023-01-30T02:24:42.482Z,11.65
2023-01-30T02:27:27.600Z,11.43
2023-01-30T02:30:33.340Z,12.05
2023-01-30T02:33:34.311Z,11.63
2023-01-30T02:36:25.906Z,11.63
2023-01-30T02:39:07.849Z,11.55
2023-01-30T02:41:41.016Z,11.23
2023-01-30T02:44:14.039Z,12.52
2023-01-30T02:46:51.006Z,11.50
2023-01-30T02:49:21.809Z,12.85
2023-01-30T02:51:50.811Z,11.52
2023-01-30T02:54:17.899Z,12.07
2023-01-30T02:56:58.131Z,12.05
2023-01-30T02:59:32.071Z,12.65
2023-01-30T03:02:08.097Z,11.07
2023-01-30T03:05:21.266Z,11.93
2023-01-30T03:08:00.466Z,11.93
2023-01-30T03:10:52.215Z,11.95
2023-01-30T03:13:37.626Z,12.05
2023-01-30T03:16:14.940Z,11.70
2023-01-30T03:18:46.331Z,12.40
2023-01-30T03:21:13.255Z,12.27
2023-01-30T03:23:40.242Z,13.07
2023-01-30T03:26:14.399Z,13.45
2023-01-30T03:28:42.209Z,13.10
2023-01-30T03:31:09.886Z,12.25
2023-01-30T03:33:37.113Z,13.55
2023-01-30T03:36:04.373Z,13.32
2023-01-30T03:38:31.353Z,13.23
2023-01-30T03:40:58.343Z,13.35
2023-01-30T03:43:25.194Z,12.73
2023-01-30T03:45:52.113Z,11.82
2023-01-30T03:48:19.356Z,12.63
2023-01-30T03:50:47.124Z,14.40
2023-01-30T03:53:14.157Z,14.35
2023-01-30T03:55:41.247Z,13.10
2023-01-30T03:58:08.078Z,12.95
2023-01-30T04:00:35.015Z,13.20
2023-01-30T04:03:01.946Z,13.55
2023-01-30T04:05:28.869Z,13.45
2023-01-30T04:07:59.067Z,14.15
2023-01-30T04:10:26.819Z,12.85
2023-01-30T04:12:53.998Z,14.55
2023-01-30T04:15:20.935Z,13.23
2023-01-30T04:17:47.997Z,15.45
2023-01-30T04:20:15.114Z,13.75
2023-01-30T04:22:42.031Z,14.10
2023-01-30T04:25:09.299Z,14.10
2023-01-30T04:27:36.154Z,13.63
2023-01-30T04:30:03.707Z,13.75
2023-01-30T04:32:30.773Z,14.40
2023-01-30T04:34:57.985Z,14.07
2023-01-30T04:37:24.948Z,12.52
2023-01-30T04:39:51.846Z,13.40
2023-01-30T04:42:18.723Z,12.90
2023-01-30T04:44:45.936Z,12.55
2023-01-30T04:47:13.003Z,13.32
2023-01-30T04:49:40.272Z,14.18
2023-01-30T04:52:09.102Z,13.25
2023-01-30T04:54:36.722Z,12.45
2023-01-30T04:57:03.624Z,12.10
2023-01-30T04:59:30.797Z,11.77
2023-01-30T05:01:58.321Z,12.10
2023-01-30T05:04:28.840Z,12.18
2023-01-30T05:06:55.873Z,11.13
2023-01-30T05:09:22.853Z,12.07
2023-01-30T05:11:49.813Z,11.63
2023-01-30T05:14:17.842Z,11.30
2023-01-30T05:16:44.858Z,11.35
2023-01-30T05:19:12.907Z,10.45
2023-01-30T05:21:39.960Z,10.77
2023-01-30T05:24:07.353Z,10.25
2023-01-30T05:26:34.621Z,10.48
2023-01-30T05:29:02.770Z,9.45
2023-01-30T05:31:35.788Z,10.40
2023-01-30T05:34:02.601Z,10.13
2023-01-30T05:36:33.056Z,10.60
2023-01-30T05:39:00.103Z,10.95
2023-01-30T05:41:27.085Z,9.88
2023-01-30T05:43:53.988Z,11.20
2023-01-30T05:46:21.176Z,10.18
2023-01-30T05:48:51.722Z,11.10
2023-01-30T05:51:22.854Z,10.35
2023-01-30T05:53:50.224Z,10.27
2023-01-30T05:56:22.763Z,9.55
2023-01-30T05:58:54.724Z,10.05
2023-01-30T06:01:26.366Z,9.35
2023-01-30T06:03:54.854Z,8.85
2023-01-30T06:06:22.806Z,8.20
2023-01-30T06:08:55.644Z,8.98
2023-01-30T06:11:23.620Z,9.20
2023-01-30T06:13:52.933Z,9.15
2023-01-30T06:16:22.863Z,8.30
2023-01-30T06:18:49.876Z,8.15
2023-01-30T06:21:17.574Z,8.65
2023-01-30T06:23:44.837Z,7.90
2023-01-30T06:26:15.100Z,7.88
2023-01-30T06:28:44.587Z,7.88
2023-01-30T06:31:12.211Z,7.30
2023-01-30T06:33:39.323Z,9.73
2023-01-30T06:36:07.723Z,8.82
2023-01-30T06:38:38.478Z,8.07
2023-01-30T06:41:06.178Z,7.85
2023-01-30T06:43:33.358Z,8.25
2023-01-30T06:46:00.468Z,8.32
2023-01-30T06:48:31.252Z,8.02
2023-01-30T06:50:58.690Z,7.88
2023-01-30T06:53:30.908Z,8.27
2023-01-30T06:56:02.711Z,7.65
2023-01-30T06:58:29.750Z,7.97
2023-01-30T07:00:57.098Z,8.52
2023-01-30T07:03:24.645Z,8.57
2023-01-30T07:05:51.560Z,8.45
2023-01-30T07:08:18.509Z,9.30
2023-01-30T07:10:45.837Z,8.45
2023-01-30T07:13:13.197Z,8.07
2023-01-30T07:15:40.472Z,9.13
2023-01-30T07:18:07.718Z,8.25
2023-01-30T07:20:34.927Z,8.30
2023-01-30T07:23:02.315Z,9.20
2023-01-30T07:25:29.728Z,7.57
2023-01-30T07:28:01.919Z,8.48
2023-01-30T07:30:33.956Z,8.43
2023-01-30T07:33:06.928Z,8.75
2023-01-30T07:35:36.080Z,9.85
2023-01-30T07:38:05.076Z,8.32
2023-01-30T07:40:32.802Z,8.30
2023-01-30T07:43:01.007Z,9.18
2023-01-30T07:45:36.458Z,8.10
2023-01-30T07:48:03.735Z,9.32
2023-01-30T07:50:30.918Z,9.60
2023-01-30T07:52:57.873Z,8.35
2023-01-30T07:55:25.106Z,9.02
2023-01-30T07:57:56.657Z,8.55
2023-01-30T08:00:23.731Z,8.93
2023-01-30T08:02:50.724Z,8.73
2023-01-30T08:05:17.931Z,8.57
2023-01-30T08:07:45.178Z,8.18
2023-01-30T08:10:17.297Z,8.05
2023-01-30T08:12:44.398Z,8.25
2023-01-30T08:15:11.262Z,8.38
2023-01-30T08:17:38.279Z,7.85
2023-01-30T08:20:08.747Z,7.95
2023-01-30T08:22:37.140Z,7.03
2023-01-30T08:25:04.476Z,6.72
2023-01-30T08:27:31.380Z,6.43
2023-01-30T08:29:58.321Z,7.35
2023-01-30T08:32:25.265Z,6.03
2023-01-30T08:34:56.947Z,6.32
2023-01-30T08:37:23.991Z,5.50
2023-01-30T08:39:51.200Z,5.65
2023-01-30T08:42:18.164Z,4.93
2023-01-30T09:09:49.955Z,4.10
2023-01-30T09:12:16.874Z,4.15
2023-01-30T09:14:43.627Z,3.85
2023-01-30T09:17:10.410Z,3.20
2023-01-30T09:19:37.367Z,2.55
2023-01-30T09:22:04.244Z,2.53
2023-01-30T09:24:31.148Z,2.35
2023-01-30T09:26:59.133Z,2.67
2023-01-30T09:29:27.417Z,2.05
2023-01-30T09:31:56.534Z,2.28
2023-01-30T09:34:28.709Z,2.00
2023-01-30T09:37:04.984Z,2.30
2023-01-30T09:42:04.785Z,2.03
2023-01-30T09:44:39.277Z,1.88
2023-01-30T09:47:12.726Z,1.90
2023-01-30T09:50:01.475Z,1.70
2023-01-30T09:52:58.117Z,1.77
2023-01-30T09:55:30.292Z,1.97
2023-01-30T09:57:59.867Z,1.60
2023-01-30T10:00:37.618Z,1.83
2023-01-30T10:03:21.494Z,1.50
2023-01-30T10:06:00.132Z,1.45
2023-01-30T10:08:50.114Z,1.83
2023-01-30T10:33:15.852Z,1.48
2023-01-30T10:35:44.359Z,1.40
2023-01-30T10:38:27.917Z,1.60
2023-01-30T10:41:14.411Z,1.50
2023-01-30T10:44:07.984Z,1.40
2023-01-30T10:46:53.608Z,1.50
2023-01-30T10:49:41.482Z,1.30
2023-01-30T10:52:42.003Z,1.85
2023-01-30T10:55:37.895Z,1.80
2023-01-30T10:58:19.632Z,2.10
2023-01-30T11:00:55.125Z,1.55
2023-01-30T11:03:41.558Z,1.80
2023-01-30T11:06:16.742Z,1.73
2023-01-30T11:08:45.053Z,1.30
2023-01-30T11:11:47.541Z,1.40
2023-01-30T11:14:14.745Z,1.48
2023-01-30T11:16:58.309Z,1.10
2023-01-30T11:19:32.792Z,1.00
2023-01-30T11:22:06.547Z,1.17
2023-01-30T11:24:41.837Z,1.13
2023-01-30T11:27:27.557Z,1.30
2023-01-30T11:30:36.981Z,0.90
2023-01-30T11:33:22.345Z,1.30
2023-01-30T11:36:00.141Z,1.17
2023-01-30T11:38:32.542Z,0.95
2023-01-30T11:41:25.639Z,1.15
2023-01-30T11:44:04.315Z,0.90
2023-01-30T11:46:40.974Z,1.00
2023-01-30T11:49:48.259Z,1.10
2023-01-30T11:52:07.358Z,0.80
2023-01-30T11:54:41.471Z,0.90
2023-01-30T11:57:14.944Z,1.10
2023-01-30T11:59:49.104Z,1.10
2023-01-30T12:02:26.124Z,1.13
2023-01-30T12:05:00.451Z,0.90
2023-01-30T12:07:30.475Z,0.90
2023-01-30T12:09:58.738Z,1.10
2023-01-30T12:12:43.895Z,1.10
2023-01-30T12:15:16.550Z,1.00
2023-01-30T12:18:09.592Z,1.10
2023-01-30T12:21:03.874Z,1.33
2023-01-30T12:23:51.889Z,1.00
2023-01-30T12:26:30.955Z,1.15
2023-01-30T12:29:19.400Z,1.13
2023-01-30T12:31:54.898Z,1.20
2023-01-30T12:34:27.053Z,1.20
2023-01-30T12:37:16.867Z,1.10
2023-01-30T12:39:58.824Z,0.98
2023-01-30T12:42:49.823Z,1.30
2023-01-30T12:45:32.237Z,1.10
2023-01-30T12:48:27.147Z,1.30
2023-01-30T12:51:13.631Z,1.15
2023-01-30T12:53:59.058Z,1.15
2023-01-30T12:57:00.792Z,1.27
2023-01-30T13:00:00.849Z,1.20
2023-01-30T13:02:30.574Z,1.40
2023-01-30T13:05:22.814Z,1.27
2023-01-30T13:08:08.139Z,1.40
2023-01-30T13:10:38.335Z,1.48
2023-01-30T13:13:26.754Z,1.50
2023-01-30T13:15:53.633Z,1.40
2023-01-30T13:18:34.529Z,1.23
2023-01-30T13:21:20.003Z,1.40
2023-01-30T13:24:18.840Z,1.30
2023-01-30T13:26:47.154Z,1.33
2023-01-30T13:29:32.904Z,1.20
2023-01-30T13:32:03.312Z,1.00
2023-01-30T13:34:41.128Z,1.38
2023-01-30T13:37:12.766Z,1.10
2023-01-30T13:39:42.829Z,1.30
2023-01-30T13:42:33.027Z,1.70
2023-01-30T13:45:01.954Z,1.30
2023-01-30T13:47:57.609Z,1.40
2023-01-30T13:50:45.719Z,1.80
2023-01-30T13:53:29.138Z,1.50
2023-01-30T13:56:27.093Z,1.40
2023-01-30T13:59:16.095Z,1.58
2023-01-30T14:02:02.281Z,1.83
2023-01-30T14:04:41.527Z,1.50
2023-01-30T14:07:23.425Z,1.67
2023-01-30T14:10:05.829Z,1.88
2023-01-30T14:12:37.794Z,1.67
2023-01-30T14:15:16.474Z,2.00
2023-01-30T14:18:05.365Z,1.58
2023-01-30T14:20:47.010Z,1.63
2023-01-30T14:23:30.163Z,2.10
2023-01-30T14:25:57.338Z,1.50
2023-01-30T14:28:24.532Z,1.50
2023-01-30T14:30:59.438Z,1.80
2023-01-30T14:33:26.227Z,1.92
2023-01-30T14:36:02.259Z,1.42
2023-01-30T14:38:34.329Z,2.28
2023-01-30T14:41:01.635Z,1.83
2023-01-30T14:43:52.629Z,1.65
2023-01-30T14:46:20.159Z,1.75
2023-01-30T14:49:01.812Z,1.90
2023-01-30T14:51:37.039Z,1.80
2023-01-30T14:54:18.720Z,1.70
2023-01-30T14:56:54.416Z,1.60
2023-01-30T14:59:33.554Z,1.63
2023-01-30T15:02:12.631Z,1.70
2023-01-30T15:05:13.420Z,1.83
2023-01-30T15:07:45.581Z,1.30
2023-01-30T15:10:37.511Z,1.60
2023-01-30T15:13:23.277Z,1.70
2023-01-30T15:16:08.786Z,1.63
2023-01-30T15:18:55.412Z,1.40
2023-01-30T15:21:37.369Z,1.52
2023-01-30T15:24:29.195Z,2.28
2023-01-30T15:26:56.119Z,2.25
2023-01-30T15:30:01.500Z,1.90
2023-01-30T15:32:30.152Z,1.80
2023-01-30T15:35:19.075Z,2.55
2023-01-30T15:37:46.117Z,2.30
2023-01-30T15:40:16.110Z,3.17
2023-01-30T15:42:54.669Z,2.38
2023-01-30T16:05:57.221Z,2.53
2023-01-30T16:08:30.226Z,2.40
2023-01-30T16:10:57.654Z,2.45
2023-01-30T16:13:24.979Z,2.30
2023-01-30T16:16:01.574Z,2.10
2023-01-30T16:18:31.231Z,2.33
2023-01-30T16:21:09.741Z,2.03
2023-01-30T16:23:43.556Z,1.88
2023-01-30T16:26:21.929Z,2.20
2023-01-30T16:28:51.375Z,1.90
2023-01-30T16:31:19.060Z,2.20
2023-01-30T16:33:53.240Z,1.85
2023-01-30T16:36:20.124Z,2.30
2023-01-30T16:38:51.549Z,2.00
2023-01-30T16:41:39.680Z,2.03
2023-01-30T16:44:15.064Z,1.80
2023-01-30T16:46:41.967Z,2.15
2023-01-30T16:49:18.595Z,2.60
2023-01-30T16:51:47.135Z,2.40
2023-01-30T16:54:24.557Z,2.30
2023-01-30T16:56:56.290Z,2.30
2023-01-30T16:59:34.526Z,1.50
2023-01-30T17:02:06.449Z,2.05
2023-01-30T17:04:35.851Z,1.83
2023-01-30T17:07:04.821Z,2.20
2023-01-30T17:09:38.418Z,1.90
2023-01-30T17:12:27.537Z,1.98
2023-01-30T17:15:09.961Z,2.30
2023-01-30T17:17:36.852Z,2.15
2023-01-30T17:20:04.670Z,1.65
2023-01-30T17:22:32.432Z,1.90
2023-01-30T17:25:03.189Z,2.33
2023-01-30T17:27:31.383Z,2.08
2023-01-30T17:29:58.237Z,2.38
2023-01-30T17:32:25.614Z,2.30
2023-01-30T17:34:52.552Z,2.30
2023-01-30T17:37:21.965Z,2.17
2023-01-30T17:39:49.273Z,2.10
2023-01-30T17:42:22.337Z,2.22
2023-01-30T17:44:49.540Z,2.42
2023-01-30T17:47:17.004Z,1.42
2023-01-30T17:49:44.293Z,1.73
2023-01-30T17:52:13.747Z,2.30
2023-01-30T17:54:40.944Z,2.17
2023-01-30T17:57:09.988Z,3.35
2023-01-30T17:59:36.906Z,1.98
2023-01-30T18:02:05.162Z,2.00
2023-01-30T18:04:32.297Z,2.38
2023-01-30T18:07:04.621Z,3.03
2023-01-30T18:09:32.089Z,2.30
2023-01-30T18:11:59.446Z,2.00
2023-01-30T18:14:26.523Z,1.83
2023-01-30T18:16:59.957Z,2.05
2023-01-30T18:19:29.139Z,2.03
2023-01-30T18:21:58.284Z,2.35
2023-01-30T18:24:25.583Z,2.15
2023-01-30T18:26:52.636Z,1.92
2023-01-30T18:29:20.143Z,1.95
2023-01-30T18:31:47.651Z,1.55
2023-01-30T18:34:14.714Z,2.47
2023-01-30T18:36:41.917Z,2.28
2023-01-30T18:39:09.523Z,2.20
2023-01-30T18:41:36.386Z,2.35
2023-01-30T18:44:05.464Z,2.33
2023-01-30T18:46:33.079Z,1.67
2023-01-30T18:49:00.267Z,2.20
2023-01-30T18:51:33.822Z,2.40
2023-01-30T18:54:01.425Z,2.00
2023-01-30T18:56:31.675Z,2.03
2023-01-30T18:59:02.643Z,1.58
2023-01-30T19:01:31.766Z,1.80
2023-01-30T19:04:01.089Z,2.00
2023-01-30T19:06:29.468Z,1.83
2023-01-30T19:08:59.080Z,2.08
2023-01-30T19:11:44.792Z,1.92
2023-01-30T19:14:12.328Z,2.08
2023-01-30T19:16:39.729Z,1.92
2023-01-30T19:19:07.945Z,1.98
2023-01-30T19:21:35.724Z,1.77
2023-01-30T19:24:08.444Z,1.83
2023-01-30T19:26:35.575Z,2.35
2023-01-30T19:29:03.013Z,1.77
2023-01-30T19:31:30.219Z,2.33
2023-01-30T19:34:00.838Z,2.28
2023-01-30T19:36:30.356Z,2.28
2023-01-30T19:38:59.649Z,2.17
2023-01-30T19:41:29.498Z,1.55
2023-01-30T19:43:59.148Z,1.90
2023-01-30T20:06:52.346Z,2.20
2023-01-30T20:09:19.693Z,2.38
2023-01-30T20:11:46.712Z,2.17
2023-01-30T20:14:13.972Z,2.13
2023-01-30T20:16:41.067Z,2.00
2023-01-30T20:19:13.015Z,1.90
2023-01-30T20:21:40.137Z,1.85
2023-01-30T20:24:07.585Z,1.80
2023-01-30T20:26:36.792Z,2.00
2023-01-30T20:29:05.400Z,1.80
2023-01-30T20:31:34.697Z,1.98
2023-01-30T20:34:03.869Z,1.70
2023-01-30T20:36:31.340Z,1.88
2023-01-30T20:39:04.359Z,1.83
2023-01-30T20:41:36.633Z,2.05
2023-01-30T20:44:06.688Z,1.73
2023-01-30T20:46:41.534Z,2.10
2023-01-30T20:49:13.047Z,2.00
2023-01-30T20:51:40.443Z,1.95
2023-01-30T20:54:09.245Z,2.03
2023-01-30T20:56:45.250Z,2.10
2023-01-30T20:59:15.130Z,2.28
2023-01-30T21:01:42.688Z,3.10
2023-01-30T21:04:15.135Z,2.17
2023-01-30T21:06:45.845Z,2.05
2023-01-30T21:09:19.723Z,2.08
2023-01-30T21:11:47.365Z,1.70
2023-01-30T21:14:15.491Z,2.13
2023-01-30T21:16:42.764Z,2.22
2023-01-30T21:19:14.989Z,2.20
2023-01-30T21:21:54.149Z,1.58
2023-01-30T21:24:25.216Z,3.10
2023-01-30T21:26:52.844Z,2.50
2023-01-30T21:29:22.840Z,2.20
2023-01-30T21:31:51.218Z,1.75
2023-01-30T21:34:18.458Z,2.55
2023-01-30T21:37:07.440Z,2.40
2023-01-30T21:39:53.522Z,2.50
2023-01-30T21:42:39.269Z,2.20
2023-01-30T21:45:06.792Z,2.28
2023-01-30T21:47:34.097Z,2.10
2023-01-30T21:50:01.439Z,2.33
2023-01-30T21:52:28.434Z,2.00
2023-01-30T21:54:57.119Z,2.05
2023-01-30T21:57:24.062Z,2.17
2023-01-30T21:59:51.281Z,2.28
2023-01-30T22:02:18.294Z,2.25
2023-01-30T22:04:45.294Z,1.85
2023-01-30T22:07:12.417Z,2.15
2023-01-30T22:09:39.710Z,2.88
2023-01-30T22:12:06.722Z,2.35
2023-01-30T22:17:16.680Z,2.75
2023-01-30T22:19:43.730Z,1.98
2023-01-30T22:22:10.681Z,1.90
2023-01-30T22:24:37.636Z,2.15
2023-01-30T22:27:04.462Z,2.28
2023-01-30T22:29:31.472Z,2.30
2023-01-30T22:31:58.478Z,2.45
2023-01-30T22:34:25.475Z,2.25
2023-01-30T22:36:53.056Z,2.00
2023-01-30T22:39:19.891Z,3.00
2023-01-30T22:41:46.787Z,2.85
2023-01-30T22:44:13.680Z,2.33
2023-01-30T22:46:41.402Z,3.42
2023-01-30T22:49:09.842Z,2.00
2023-01-30T22:51:39.819Z,2.10
2023-01-30T22:54:10.459Z,1.80
2023-01-30T22:56:42.394Z,2.10
2023-01-30T22:59:10.394Z,1.95
2023-01-30T23:01:39.894Z,2.10
2023-01-30T23:04:15.660Z,2.17
2023-01-30T23:06:43.449Z,2.15
2023-01-30T23:09:14.725Z,2.42
2023-01-30T23:11:45.331Z,1.63
2023-01-30T23:14:15.517Z,2.38
2023-01-30T23:16:44.463Z,2.63
2023-01-30T23:19:13.195Z,2.15
2023-01-30T23:21:43.103Z,2.15
2023-01-30T23:24:11.539Z,2.45
2023-01-30T23:26:43.007Z,2.15
2023-01-30T23:29:13.308Z,2.25
2023-01-30T23:31:41.882Z,2.22
2023-01-30T23:34:13.001Z,2.28
2023-01-30T23:36:40.120Z,2.35
2023-01-30T23:39:07.482Z,2.35
2023-01-30T23:41:36.620Z,2.28
2023-01-30T23:44:04.017Z,2.28
2023-01-30T23:46:33.739Z,2.35
2023-01-30T23:49:05.849Z,2.03
2023-01-30T23:51:34.413Z,2.30
2023-01-30T23:54:01.446Z,2.22
2023-01-30T23:56:30.190Z,2.38
2023-01-30T23:58:57.833Z,2.25
